Terminal Aerodrome Forecast
Issued by NWS

Home | Current Version | Previous Version | Text Only | Print | Product List | Glossary On
Versions: 1 2 3 4 5 6 7 8 9 10 11 12 13 14 15 16 17 18 19 20
000
FTUS41 KBOX 232325
TAFHYA
TAF
KHYA 232325Z 2400/2424 07010KT P6SM SCT100
     FM241000 10008KT P6SM -RA BKN090
     FM241300 09010G20KT 2SM RA BR SCT010 OVC040
     FM241500 07013G30KT 2SM -RA BR OVC008
     FM242100 06013G26KT 5SM BR VCSH BKN008=

USA.gov is the U.S. government's official web portal to all federal, state and local government web resources and services.